sensor_id;sensor_type;location;lat;lon;timestamp;pressure;altitude;pressure_sealevel;temperature;humidity
20228;BME280;12195;55.790;37.572;2023-09-18T00:00:13;100272.22;;;13.88;68.52
20228;BME280;12195;55.790;37.572;2023-09-18T00:02:57;100283.70;;;14.17;68.14
20228;BME280;12195;55.790;37.572;2023-09-18T00:05:42;100282.41;;;14.24;68.14
20228;BME280;12195;55.790;37.572;2023-09-18T00:08:26;100283.00;;;14.29;67.74
20228;BME280;12195;55.790;37.572;2023-09-18T00:10:59;100274.44;;;14.10;67.31
20228;BME280;12195;55.790;37.572;2023-09-18T00:13:44;100279.20;;;14.33;67.25
20228;BME280;12195;55.790;37.572;2023-09-18T00:16:17;100278.77;;;14.11;67.25
20228;BME280;12195;55.790;37.572;2023-09-18T00:18:59;100273.27;;;14.29;68.05
20228;BME280;12195;55.790;37.572;2023-09-18T00:21:33;100278.03;;;14.09;67.42
20228;BME280;12195;55.790;37.572;2023-09-18T00:24:16;100279.59;;;14.27;67.68
20228;BME280;12195;55.790;37.572;2023-09-18T00:26:49;100265.35;;;14.00;67.54
20228;BME280;12195;55.790;37.572;2023-09-18T00:29:33;100268.69;;;14.17;67.74
20228;BME280;12195;55.790;37.572;2023-09-18T00:32:06;100267.80;;;13.89;67.72
20228;BME280;12195;55.790;37.572;2023-09-18T00:34:51;100278.20;;;14.06;67.99
20228;BME280;12195;55.790;37.572;2023-09-18T00:37:24;100269.95;;;13.82;68.07
20228;BME280;12195;55.790;37.572;2023-09-18T00:39:56;100277.67;;;13.85;68.03
20228;BME280;12195;55.790;37.572;2023-09-18T00:42:39;100280.47;;;14.12;67.92
20228;BME280;12195;55.790;37.572;2023-09-18T00:45:12;100276.78;;;14.00;67.49
20228;BME280;12195;55.790;37.572;2023-09-18T00:47:59;100280.23;;;14.30;67.27
20228;BME280;12195;55.790;37.572;2023-09-18T00:50:32;100274.75;;;14.19;66.88
20228;BME280;12195;55.790;37.572;2023-09-18T00:53:19;100281.22;;;14.43;67.12
20228;BME280;12195;55.790;37.572;2023-09-18T00:55:54;100253.56;;;14.21;66.75
20228;BME280;12195;55.790;37.572;2023-09-18T00:58:39;100273.55;;;14.53;66.83
20228;BME280;12195;55.790;37.572;2023-09-18T01:01:22;100261.84;;;14.57;66.77
20228;BME280;12195;55.790;37.572;2023-09-18T01:03:56;100255.92;;;14.39;66.32
20228;BME280;12195;55.790;37.572;2023-09-18T01:06:43;100264.22;;;14.61;66.65
20228;BME280;12195;55.790;37.572;2023-09-18T01:09:28;100262.31;;;14.63;66.60
20228;BME280;12195;55.790;37.572;2023-09-18T01:12:13;100259.22;;;14.43;66.36
20228;BME280;12195;55.790;37.572;2023-09-18T01:15:02;100259.39;;;14.68;66.49
20228;BME280;12195;55.790;37.572;2023-09-18T01:17:37;100248.38;;;14.47;66.22
20228;BME280;12195;55.790;37.572;2023-09-18T01:20:23;100244.39;;;14.68;66.52
20228;BME280;12195;55.790;37.572;2023-09-18T01:22:56;100240.33;;;14.49;66.10
20228;BME280;12195;55.790;37.572;2023-09-18T01:25:38;100243.63;;;14.66;66.49
20228;BME280;12195;55.790;37.572;2023-09-18T01:28:11;100219.95;;;14.23;66.56
20228;BME280;12195;55.790;37.572;2023-09-18T01:30:55;100235.41;;;14.57;66.68
20228;BME280;12195;55.790;37.572;2023-09-18T01:33:41;100232.40;;;14.49;67.14
20228;BME280;12195;55.790;37.572;2023-09-18T01:36:26;100245.91;;;14.44;67.35
20228;BME280;12195;55.790;37.572;2023-09-18T01:38:58;100235.30;;;14.16;67.59
20228;BME280;12195;55.790;37.572;2023-09-18T01:41:41;100229.95;;;14.32;67.78
20228;BME280;12195;55.790;37.572;2023-09-18T01:44:15;100230.76;;;14.04;67.99
20228;BME280;12195;55.790;37.572;2023-09-18T01:47:02;100235.72;;;14.24;67.88
20228;BME280;12195;55.790;37.572;2023-09-18T01:49:49;100232.42;;;14.21;68.35
20228;BME280;12195;55.790;37.572;2023-09-18T01:52:22;100219.16;;;14.07;68.39
20228;BME280;12195;55.790;37.572;2023-09-18T01:55:07;100228.44;;;14.28;68.32
20228;BME280;12195;55.790;37.572;2023-09-18T01:57:50;100224.76;;;14.30;68.48
20228;BME280;12195;55.790;37.572;2023-09-18T02:00:32;100227.05;;;14.36;68.37
20228;BME280;12195;55.790;37.572;2023-09-18T02:03:06;100208.89;;;14.16;68.14
20228;BME280;12195;55.790;37.572;2023-09-18T02:05:51;100210.15;;;14.39;68.15
20228;BME280;12195;55.790;37.572;2023-09-18T02:08:25;100211.35;;;14.19;68.15
20228;BME280;12195;55.790;37.572;2023-09-18T02:11:08;100207.88;;;14.47;67.05
20228;BME280;12195;55.790;37.572;2023-09-18T02:13:40;100207.70;;;14.22;67.90
20228;BME280;12195;55.790;37.572;2023-09-18T02:16:26;100209.75;;;14.45;67.80
20228;BME280;12195;55.790;37.572;2023-09-18T02:19:10;100205.23;;;14.47;67.95
20228;BME280;12195;55.790;37.572;2023-09-18T02:21:56;100203.45;;;14.47;68.10
20228;BME280;12195;55.790;37.572;2023-09-18T02:24:39;100203.14;;;14.52;67.95
20228;BME280;12195;55.790;37.572;2023-09-18T02:27:24;100206.16;;;14.60;67.72
20228;BME280;12195;55.790;37.572;2023-09-18T02:29:57;100197.30;;;14.33;67.89
20228;BME280;12195;55.790;37.572;2023-09-18T02:32:40;100205.14;;;14.48;67.87
20228;BME280;12195;55.790;37.572;2023-09-18T02:35:22;100201.09;;;14.43;68.26
20228;BME280;12195;55.790;37.572;2023-09-18T02:37:56;100197.85;;;14.10;68.78
20228;BME280;12195;55.790;37.572;2023-09-18T02:40:41;100209.22;;;14.26;69.04
20228;BME280;12195;55.790;37.572;2023-09-18T02:43:14;100199.45;;;13.98;69.47
20228;BME280;12195;55.790;37.572;2023-09-18T02:45:56;100196.33;;;14.20;69.53
20228;BME280;12195;55.790;37.572;2023-09-18T02:48:41;100192.68;;;14.22;69.68
20228;BME280;12195;55.790;37.572;2023-09-18T02:51:14;100187.29;;;14.10;69.27
20228;BME280;12195;55.790;37.572;2023-09-18T02:53:58;100194.66;;;14.33;69.41
20228;BME280;12195;55.790;37.572;2023-09-18T02:56:31;100193.05;;;14.16;69.32
20228;BME280;12195;55.790;37.572;2023-09-18T02:59:14;100198.81;;;14.37;69.29
20228;BME280;12195;55.790;37.572;2023-09-18T03:02:03;100192.52;;;14.39;69.41
20228;BME280;12195;55.790;37.572;2023-09-18T03:04:47;100206.19;;;14.46;69.18
20228;BME280;12195;55.790;37.572;2023-09-18T03:07:32;100198.62;;;14.54;68.89
20228;BME280;12195;55.790;37.572;2023-09-18T03:10:18;100198.14;;;14.61;68.69
20228;BME280;12195;55.790;37.572;2023-09-18T03:12:50;100191.16;;;14.46;68.50
20228;BME280;12195;55.790;37.572;2023-09-18T03:15:35;100194.08;;;14.70;68.81
20228;BME280;12195;55.790;37.572;2023-09-18T03:18:20;100191.98;;;14.75;68.65
20228;BME280;12195;55.790;37.572;2023-09-18T03:21:03;100197.91;;;14.78;68.44
20228;BME280;12195;55.790;37.572;2023-09-18T03:23:35;100192.08;;;14.59;68.11
20228;BME280;12195;55.790;37.572;2023-09-18T03:26:09;100188.52;;;14.60;68.14
20228;BME280;12195;55.790;37.572;2023-09-18T03:28:53;100199.73;;;14.64;68.01
20228;BME280;12195;55.790;37.572;2023-09-18T03:31:26;100199.73;;;14.64;68.01
20228;BME280;12195;55.790;37.572;2023-09-18T03:34:12;100193.53;;;14.91;67.86
20228;BME280;12195;55.790;37.572;2023-09-18T03:36:55;100194.72;;;14.73;69.57
20228;BME280;12195;55.790;37.572;2023-09-18T03:39:30;100190.02;;;14.64;68.73
20228;BME280;12195;55.790;37.572;2023-09-18T03:42:16;100184.67;;;14.92;68.86
20228;BME280;12195;55.790;37.572;2023-09-18T03:44:49;100190.58;;;14.55;69.15
20228;BME280;12195;55.790;37.572;2023-09-18T03:47:33;100187.34;;;14.78;68.71
20228;BME280;12195;55.790;37.572;2023-09-18T03:50:08;100187.34;;;14.78;68.71
20228;BME280;12195;55.790;37.572;2023-09-18T03:52:51;100201.79;;;15.13;68.04
20228;BME280;12195;55.790;37.572;2023-09-18T03:55:26;100189.96;;;14.92;67.94
20228;BME280;12195;55.790;37.572;2023-09-18T03:58:11;100188.05;;;15.21;67.93
20228;BME280;12195;55.790;37.572;2023-09-18T04:00:57;100201.08;;;15.24;67.50
20228;BME280;12195;55.790;37.572;2023-09-18T04:03:31;100190.07;;;14.77;68.68
20228;BME280;12195;55.790;37.572;2023-09-18T04:06:03;100187.95;;;14.96;68.02
20228;BME280;12195;55.790;37.572;2023-09-18T04:08:48;100211.25;;;15.30;67.80
20228;BME280;12195;55.790;37.572;2023-09-18T04:11:32;100178.61;;;15.17;66.88
20228;BME280;12195;55.790;37.572;2023-09-18T04:14:17;100186.02;;;15.38;67.41
20228;BME280;12195;55.790;37.572;2023-09-18T04:16:51;100177.75;;;15.16;66.90
20228;BME280;12195;55.790;37.572;2023-09-18T04:19:36;100185.70;;;15.43;66.81
20228;BME280;12195;55.790;37.572;2023-09-18T04:22:20;100175.11;;;15.43;66.77
20228;BME280;12195;55.790;37.572;2023-09-18T04:25:05;100189.84;;;15.47;66.44
20228;BME280;12195;55.790;37.572;2023-09-18T04:27:49;100182.33;;;15.27;66.65
20228;BME280;12195;55.790;37.572;2023-09-18T04:30:25;100176.75;;;15.31;66.55
20228;BME280;12195;55.790;37.572;2023-09-18T04:35:57;100162.89;;;15.28;66.33
20228;BME280;12195;55.790;37.572;2023-09-18T04:38:30;100162.89;;;15.28;66.33
20228;BME280;12195;55.790;37.572;2023-09-18T04:41:15;100176.87;;;15.69;66.12
20228;BME280;12195;55.790;37.572;2023-09-18T04:43:49;100171.97;;;15.50;66.06
20228;BME280;12195;55.790;37.572;2023-09-18T04:46:34;100181.20;;;15.82;65.39
20228;BME280;12195;55.790;37.572;2023-09-18T04:49:08;100178.85;;;15.65;66.00
20228;BME280;12195;55.790;37.572;2023-09-18T04:51:55;100186.82;;;15.90;65.75
20228;BME280;12195;55.790;37.572;2023-09-18T04:54:31;100157.24;;;15.46;65.92
20228;BME280;12195;55.790;37.572;2023-09-18T04:57:16;100177.72;;;15.82;65.96
20228;BME280;12195;55.790;37.572;2023-09-18T04:59:50;100178.19;;;15.49;66.07
20228;BME280;12195;55.790;37.572;2023-09-18T05:02:38;100179.42;;;15.70;66.50
20228;BME280;12195;55.790;37.572;2023-09-18T05:05:12;100174.62;;;15.63;66.03
20228;BME280;12195;55.790;37.572;2023-09-18T05:07:58;100187.77;;;16.15;64.94
20228;BME280;12195;55.790;37.572;2023-09-18T05:10:32;100181.85;;;16.11;64.05
20228;BME280;12195;55.790;37.572;2023-09-18T05:13:18;100186.50;;;16.45;63.92
20228;BME280;12195;55.790;37.572;2023-09-18T05:15:51;100185.23;;;16.13;63.42
20228;BME280;12195;55.790;37.572;2023-09-18T05:18:37;100192.16;;;16.41;63.84
20228;BME280;12195;55.790;37.572;2023-09-18T05:21:12;100188.12;;;16.10;64.01
20228;BME280;12195;55.790;37.572;2023-09-18T05:23:46;100194.66;;;16.17;63.91
20228;BME280;12195;55.790;37.572;2023-09-18T05:26:31;100194.00;;;16.64;63.69
20228;BME280;12195;55.790;37.572;2023-09-18T05:29:17;100195.84;;;16.87;62.75
20228;BME280;12195;55.790;37.572;2023-09-18T05:31:50;100191.19;;;16.42;63.24
20228;BME280;12195;55.790;37.572;2023-09-18T05:34:36;100189.36;;;16.91;63.06
20228;BME280;12195;55.790;37.572;2023-09-18T05:37:12;100201.23;;;16.37;63.61
20228;BME280;12195;55.790;37.572;2023-09-18T05:39:58;100194.89;;;17.11;62.56
20228;BME280;12195;55.790;37.572;2023-09-18T05:42:44;100197.28;;;17.27;61.95
20228;BME280;12195;55.790;37.572;2023-09-18T05:45:29;100192.58;;;17.54;60.82
20228;BME280;12195;55.790;37.572;2023-09-18T05:48:14;100196.36;;;17.62;60.39
20228;BME280;12195;55.790;37.572;2023-09-18T05:51:00;100198.58;;;17.79;60.03
20228;BME280;12195;55.790;37.572;2023-09-18T05:53:34;100186.88;;;17.82;59.07
20228;BME280;12195;55.790;37.572;2023-09-18T05:56:20;100194.70;;;18.40;58.28
20228;BME280;12195;55.790;37.572;2023-09-18T05:59:05;100193.97;;;18.60;57.81
20228;BME280;12195;55.790;37.572;2023-09-18T06:01:39;100186.45;;;18.32;57.37
20228;BME280;12195;55.790;37.572;2023-09-18T06:04:25;100183.25;;;19.04;56.38
20228;BME280;12195;55.790;37.572;2023-09-18T06:06:59;100182.92;;;18.86;55.87
20228;BME280;12195;55.790;37.572;2023-09-18T06:09:46;100181.90;;;19.52;55.75
20228;BME280;12195;55.790;37.572;2023-09-18T06:12:31;100185.49;;;19.82;54.41
20228;BME280;12195;55.790;37.572;2023-09-18T06:15:14;100190.09;;;19.80;54.38
20228;BME280;12195;55.790;37.572;2023-09-18T06:17:47;100189.60;;;19.34;54.17
20228;BME280;12195;55.790;37.572;2023-09-18T06:20:32;100189.24;;;19.59;54.60
20228;BME280;12195;55.790;37.572;2023-09-18T06:23:16;100190.27;;;19.47;55.02
20228;BME280;12195;55.790;37.572;2023-09-18T06:25:50;100192.58;;;18.98;55.02
20228;BME280;12195;55.790;37.572;2023-09-18T06:28:38;100191.41;;;19.23;56.09
20228;BME280;12195;55.790;37.572;2023-09-18T06:31:13;100198.78;;;18.88;55.79
20228;BME280;12195;55.790;37.572;2023-09-18T06:33:58;100203.43;;;19.17;56.08
20228;BME280;12195;55.790;37.572;2023-09-18T06:36:32;100201.09;;;18.81;56.15
20228;BME280;12195;55.790;37.572;2023-09-18T06:39:18;100198.37;;;19.03;56.50
20228;BME280;12195;55.790;37.572;2023-09-18T06:41:52;100203.16;;;18.56;56.68
20228;BME280;12195;55.790;37.572;2023-09-18T06:44:39;100201.56;;;18.75;57.08
20228;BME280;12195;55.790;37.572;2023-09-18T06:47:13;100194.80;;;18.27;57.64
20228;BME280;12195;55.790;37.572;2023-09-18T06:49:57;100202.92;;;18.48;57.99
20228;BME280;12195;55.790;37.572;2023-09-18T06:52:43;100204.62;;;18.38;58.39
20228;BME280;12195;55.790;37.572;2023-09-18T06:55:28;100202.66;;;18.29;58.24
20228;BME280;12195;55.790;37.572;2023-09-18T06:58:15;100211.94;;;18.12;59.45
20228;BME280;12195;55.790;37.572;2023-09-18T07:00:59;100223.77;;;18.08;59.19
20228;BME280;12195;55.790;37.572;2023-09-18T07:03:47;100221.11;;;18.08;59.48
20228;BME280;12195;55.790;37.572;2023-09-18T07:06:33;100225.34;;;18.11;59.40
20228;BME280;12195;55.790;37.572;2023-09-18T07:09:18;100222.34;;;18.15;59.04
20228;BME280;12195;55.790;37.572;2023-09-18T07:11:52;100227.77;;;17.68;60.03
20228;BME280;12195;55.790;37.572;2023-09-18T07:14:26;100229.31;;;17.60;60.43
20228;BME280;12195;55.790;37.572;2023-09-18T07:17:12;100234.47;;;17.85;60.96
20228;BME280;12195;55.790;37.572;2023-09-18T07:19:59;100235.30;;;17.85;60.98
20228;BME280;12195;55.790;37.572;2023-09-18T07:22:33;100236.54;;;17.58;60.96
20228;BME280;12195;55.790;37.572;2023-09-18T07:25:21;100246.78;;;17.86;60.69
20228;BME280;12195;55.790;37.572;2023-09-18T07:27:55;100242.55;;;17.49;61.47
20228;BME280;12195;55.790;37.572;2023-09-18T07:30:40;100248.84;;;17.82;60.83
20228;BME280;12195;55.790;37.572;2023-09-18T07:33:23;100255.23;;;17.80;61.65
20228;BME280;12195;55.790;37.572;2023-09-18T07:35:57;100246.34;;;17.57;60.76
20228;BME280;12195;55.790;37.572;2023-09-18T07:38:40;100258.55;;;17.94;61.04
20228;BME280;12195;55.790;37.572;2023-09-18T07:41:26;100260.13;;;18.08;60.09
20228;BME280;12195;55.790;37.572;2023-09-18T07:44:01;100248.83;;;17.48;61.91
20228;BME280;12195;55.790;37.572;2023-09-18T07:46:46;100252.15;;;18.08;61.18
20228;BME280;12195;55.790;37.572;2023-09-18T07:49:20;100253.49;;;18.02;60.11
20228;BME280;12195;55.790;37.572;2023-09-18T07:52:06;100260.97;;;18.54;59.55
20228;BME280;12195;55.790;37.572;2023-09-18T07:54:44;100263.50;;;18.44;58.91
20228;BME280;12195;55.790;37.572;2023-09-18T07:57:27;100262.30;;;18.92;58.43
20228;BME280;12195;55.790;37.572;2023-09-18T08:00:05;100259.51;;;18.72;57.94
20228;BME280;12195;55.790;37.572;2023-09-18T08:02:56;100251.95;;;19.10;58.06
20228;BME280;12195;55.790;37.572;2023-09-18T08:05:31;100252.27;;;18.74;57.58
20228;BME280;12195;55.790;37.572;2023-09-18T08:08:18;100263.00;;;19.05;57.97
20228;BME280;12195;55.790;37.572;2023-09-18T08:10:53;100249.03;;;18.14;59.78
20228;BME280;12195;55.790;37.572;2023-09-18T08:13:36;100259.98;;;18.88;59.74
20228;BME280;12195;55.790;37.572;2023-09-18T08:16:12;100256.23;;;18.79;58.87
20228;BME280;12195;55.790;37.572;2023-09-18T08:18:57;100266.10;;;19.32;57.73
20228;BME280;12195;55.790;37.572;2023-09-18T08:21:32;100257.33;;;18.99;57.53
20228;BME280;12195;55.790;37.572;2023-09-18T08:24:17;100257.39;;;19.41;59.24
20228;BME280;12195;55.790;37.572;2023-09-18T08:26:54;100264.57;;;18.86;58.44
20228;BME280;12195;55.790;37.572;2023-09-18T08:29:45;100267.73;;;19.55;57.97
20228;BME280;12195;55.790;37.572;2023-09-18T08:32:19;100264.42;;;19.31;56.99
20228;BME280;12195;55.790;37.572;2023-09-18T08:35:05;100258.86;;;19.66;57.88
20228;BME280;12195;55.790;37.572;2023-09-18T08:37:41;100250.24;;;19.31;56.94
20228;BME280;12195;55.790;37.572;2023-09-18T08:40:26;100246.11;;;19.69;57.38
20228;BME280;12195;55.790;37.572;2023-09-18T08:43:00;100235.19;;;19.52;56.72
20228;BME280;12195;55.790;37.572;2023-09-18T08:45:53;100242.45;;;20.02;56.84
20228;BME280;12195;55.790;37.572;2023-09-18T08:48:30;100238.32;;;19.77;55.33
20228;BME280;12195;55.790;37.572;2023-09-18T08:51:18;100237.24;;;20.21;56.50
20228;BME280;12195;55.790;37.572;2023-09-18T08:54:05;100241.02;;;20.18;56.10
20228;BME280;12195;55.790;37.572;2023-09-18T08:56:39;100203.74;;;19.35;58.74
20228;BME280;12195;55.790;37.572;2023-09-18T08:59:13;100232.08;;;19.88;56.30
20228;BME280;12195;55.790;37.572;2023-09-18T09:02:00;100236.43;;;20.50;55.32
20228;BME280;12195;55.790;37.572;2023-09-18T09:04:45;100252.11;;;20.65;54.68
20228;BME280;12195;55.790;37.572;2023-09-18T09:07:22;100251.98;;;20.15;54.61
20228;BME280;12195;55.790;37.572;2023-09-18T09:10:08;100251.25;;;20.34;56.28
20228;BME280;12195;55.790;37.572;2023-09-18T09:12:52;100249.91;;;19.13;58.37
20228;BME280;12195;55.790;37.572;2023-09-18T09:15:46;100262.31;;;19.77;58.18
20228;BME280;12195;55.790;37.572;2023-09-18T09:18:23;100253.98;;;19.39;57.09
20228;BME280;12195;55.790;37.572;2023-09-18T09:21:10;100258.08;;;19.75;57.14
20228;BME280;12195;55.790;37.572;2023-09-18T09:23:47;100262.00;;;19.28;57.63
20228;BME280;12195;55.790;37.572;2023-09-18T09:26:42;100276.61;;;19.45;58.29
20228;BME280;12195;55.790;37.572;2023-09-18T09:29:20;100269.92;;;18.07;62.91
20228;BME280;12195;55.790;37.572;2023-09-18T09:32:16;100282.50;;;18.62;62.67
20228;BME280;12195;55.790;37.572;2023-09-18T09:34:50;100269.33;;;18.15;63.55
20228;BME280;12195;55.790;37.572;2023-09-18T09:37:37;100283.77;;;18.34;63.36
20228;BME280;12195;55.790;37.572;2023-09-18T09:40:12;100288.83;;;17.57;66.44
20228;BME280;12195;55.790;37.572;2023-09-18T09:42:58;100288.31;;;17.76;65.66
20228;BME280;12195;55.790;37.572;2023-09-18T09:45:35;100276.14;;;17.01;68.91
20228;BME280;12195;55.790;37.572;2023-09-18T09:48:20;100276.73;;;17.17;70.76
20228;BME280;12195;55.790;37.572;2023-09-18T09:51:01;100267.27;;;16.90;70.54
20228;BME280;12195;55.790;37.572;2023-09-18T09:53:45;100266.45;;;17.49;71.72
20228;BME280;12195;55.790;37.572;2023-09-18T09:56:45;100254.11;;;17.71;69.82
20228;BME280;12195;55.790;37.572;2023-09-18T09:59:21;100257.86;;;17.45;69.25
20228;BME280;12195;55.790;37.572;2023-09-18T10:01:58;100252.97;;;17.63;69.76
20228;BME280;12195;55.790;37.572;2023-09-18T10:04:44;100263.19;;;18.14;70.91
20228;BME280;12195;55.790;37.572;2023-09-18T10:07:20;100267.87;;;18.11;70.63
20228;BME280;12195;55.790;37.572;2023-09-18T10:09:55;100272.62;;;18.29;68.61
20228;BME280;12195;55.790;37.572;2023-09-18T10:12:42;100276.81;;;18.77;67.26
20228;BME280;12195;55.790;37.572;2023-09-18T10:15:29;100279.47;;;18.77;68.04
20228;BME280;12195;55.790;37.572;2023-09-18T10:21:52;100272.30;;;19.64;63.02
20228;BME280;12195;55.790;37.572;2023-09-18T10:24:30;100278.47;;;19.33;63.25
20228;BME280;12195;55.790;37.572;2023-09-18T10:27:18;100285.14;;;19.70;63.55
20228;BME280;12195;55.790;37.572;2023-09-18T10:29:56;100273.44;;;19.51;63.00
20228;BME280;12195;55.790;37.572;2023-09-18T10:32:33;100265.01;;;19.98;62.04
20228;BME280;12195;55.790;37.572;2023-09-18T10:35:23;100267.31;;;20.74;61.60
20228;BME280;12195;55.790;37.572;2023-09-18T10:38:10;100270.03;;;20.83;59.68
20228;BME280;12195;55.790;37.572;2023-09-18T10:41:00;100264.98;;;20.90;59.53
20228;BME280;12195;55.790;37.572;2023-09-18T10:43:47;100273.33;;;20.96;58.53
20228;BME280;12195;55.790;37.572;2023-09-18T10:46:33;100273.00;;;20.90;57.84
20228;BME280;12195;55.790;37.572;2023-09-18T10:49:22;100269.41;;;20.19;59.94
20228;BME280;12195;55.790;37.572;2023-09-18T10:52:11;100268.08;;;20.34;60.94
20228;BME280;12195;55.790;37.572;2023-09-18T10:55:04;100265.03;;;20.39;60.57
20228;BME280;12195;55.790;37.572;2023-09-18T10:57:52;100268.98;;;20.03;58.11
20228;BME280;12195;55.790;37.572;2023-09-18T11:00:41;100261.69;;;20.46;59.10
20228;BME280;12195;55.790;37.572;2023-09-18T11:03:16;100259.62;;;20.29;59.58
20228;BME280;12195;55.790;37.572;2023-09-18T11:06:04;100249.06;;;20.79;58.93
20228;BME280;12195;55.790;37.572;2023-09-18T11:08:50;100252.50;;;20.60;57.79
20228;BME280;12195;55.790;37.572;2023-09-18T11:11:36;100262.52;;;20.98;57.40
20228;BME280;12195;55.790;37.572;2023-09-18T11:14:21;100258.23;;;20.86;57.55
20228;BME280;12195;55.790;37.572;2023-09-18T11:16:56;100256.17;;;20.38;57.75
20228;BME280;12195;55.790;37.572;2023-09-18T11:19:45;100263.66;;;20.75;58.41
20228;BME280;12195;55.790;37.572;2023-09-18T11:22:22;100262.17;;;20.31;58.49
20228;BME280;12195;55.790;37.572;2023-09-18T11:25:34;100258.33;;;20.24;58.50
20228;BME280;12195;55.790;37.572;2023-09-18T11:28:26;100259.00;;;20.67;57.87
20228;BME280;12195;55.790;37.572;2023-09-18T11:31:04;100256.27;;;20.27;58.07
20228;BME280;12195;55.790;37.572;2023-09-18T11:33:53;100271.74;;;20.63;57.80
20228;BME280;12195;55.790;37.572;2023-09-18T11:36:29;100266.67;;;20.10;58.49
20228;BME280;12195;55.790;37.572;2023-09-18T11:42:22;100277.13;;;20.22;58.64
20228;BME280;12195;55.790;37.572;2023-09-18T11:44:57;100275.49;;;19.58;59.07
20228;BME280;12195;55.790;37.572;2023-09-18T11:47:43;100275.76;;;19.76;60.95
20228;BME280;12195;55.790;37.572;2023-09-18T11:50:19;100282.13;;;18.77;62.86
20228;BME280;12195;55.790;37.572;2023-09-18T11:53:06;100284.04;;;19.30;62.78
20228;BME280;12195;55.790;37.572;2023-09-18T11:55:43;100275.09;;;18.54;63.82
20228;BME280;12195;55.790;37.572;2023-09-18T11:58:28;100284.26;;;19.16;62.16
20228;BME280;12195;55.790;37.572;2023-09-18T12:01:15;100286.22;;;19.14;62.49
20228;BME280;12195;55.790;37.572;2023-09-18T12:03:55;100275.25;;;18.75;62.71
20228;BME280;12195;55.790;37.572;2023-09-18T12:06:41;100285.48;;;19.12;63.29
20228;BME280;12195;55.790;37.572;2023-09-18T12:09:32;100278.72;;;19.30;61.99
20228;BME280;12195;55.790;37.572;2023-09-18T12:12:06;100273.89;;;19.02;61.86
20228;BME280;12195;55.790;37.572;2023-09-18T12:14:55;100275.88;;;19.43;61.79
20228;BME280;12195;55.790;37.572;2023-09-18T12:17:33;100277.16;;;19.28;61.31
20228;BME280;12195;55.790;37.572;2023-09-18T12:20:19;100276.98;;;19.72;61.10
20228;BME280;12195;55.790;37.572;2023-09-18T12:22:53;100275.27;;;19.50;60.21
20228;BME280;12195;55.790;37.572;2023-09-18T12:25:39;100277.93;;;19.82;60.46
20228;BME280;12195;55.790;37.572;2023-09-18T12:28:30;100271.74;;;19.81;60.29
20228;BME280;12195;55.790;37.572;2023-09-18T12:31:04;100279.41;;;19.43;60.22
20228;BME280;12195;55.790;37.572;2023-09-18T12:33:44;100282.20;;;19.73;58.97
20228;BME280;12195;55.790;37.572;2023-09-18T12:36:34;100283.91;;;19.74;59.94
20228;BME280;12195;55.790;37.572;2023-09-18T12:39:35;100282.47;;;19.70;60.28
20228;BME280;12195;55.790;37.572;2023-09-18T12:42:11;100271.43;;;19.32;60.92
20228;BME280;12195;55.790;37.572;2023-09-18T12:45:00;100280.94;;;19.57;60.98
20228;BME280;12195;55.790;37.572;2023-09-18T12:47:37;100282.45;;;19.17;61.25
20228;BME280;12195;55.790;37.572;2023-09-18T12:50:26;100279.41;;;19.43;60.85
20228;BME280;12195;55.790;37.572;2023-09-18T12:53:21;100287.70;;;18.96;62.07
20228;BME280;12195;55.790;37.572;2023-09-18T12:56:14;100286.34;;;19.13;61.84
20228;BME280;12195;55.790;37.572;2023-09-18T12:58:58;100282.36;;;18.63;63.11
20228;BME280;12195;55.790;37.572;2023-09-18T13:01:47;100284.41;;;18.82;63.02
20228;BME280;12195;55.790;37.572;2023-09-18T13:04:36;100284.05;;;18.75;62.93
20228;BME280;12195;55.790;37.572;2023-09-18T13:07:24;100284.00;;;18.31;64.05
20228;BME280;12195;55.790;37.572;2023-09-18T13:10:17;100291.42;;;18.61;64.45
20228;BME280;12195;55.790;37.572;2023-09-18T13:12:52;100281.45;;;18.30;63.66
20228;BME280;12195;55.790;37.572;2023-09-18T13:15:32;100281.45;;;18.30;63.66
20228;BME280;12195;55.790;37.572;2023-09-18T13:18:24;100287.20;;;18.58;64.23
20228;BME280;12195;55.790;37.572;2023-09-18T13:21:12;100287.12;;;18.25;64.10
20228;BME280;12195;55.790;37.572;2023-09-18T13:24:23;100292.63;;;18.57;63.60
20228;BME280;12195;55.790;37.572;2023-09-18T13:26:52;100277.68;;;18.21;63.89
20228;BME280;12195;55.790;37.572;2023-09-18T13:29:40;100281.48;;;18.41;64.43
20228;BME280;12195;55.790;37.572;2023-09-18T13:32:39;100279.20;;;18.36;64.07
20228;BME280;12195;55.790;37.572;2023-09-18T13:35:30;100274.88;;;17.77;65.87
20228;BME280;12195;55.790;37.572;2023-09-18T13:38:23;100290.67;;;18.37;64.95
20228;BME280;12195;55.790;37.572;2023-09-18T13:41:13;100284.65;;;18.57;63.83
20228;BME280;12195;55.790;37.572;2023-09-18T13:43:47;100281.48;;;18.41;63.35
20228;BME280;12195;55.790;37.572;2023-09-18T13:46:51;100280.19;;;18.79;62.71
20228;BME280;12195;55.790;37.572;2023-09-18T13:49:27;100278.02;;;18.51;62.78
20228;BME280;12195;55.790;37.572;2023-09-18T13:52:19;100274.52;;;18.95;62.59
20228;BME280;12195;55.790;37.572;2023-09-18T13:55:07;100273.92;;;18.80;61.54
20228;BME280;12195;55.790;37.572;2023-09-18T13:58:02;100275.05;;;19.20;61.75
20228;BME280;12195;55.790;37.572;2023-09-18T14:00:39;100264.52;;;19.72;59.24
20228;BME280;12195;55.790;37.572;2023-09-18T14:03:51;100265.66;;;21.22;56.91
20228;BME280;12195;55.790;37.572;2023-09-18T14:06:30;100254.45;;;22.23;52.39